sensor_id;sensor_type;location;lat;lon;timestamp;temperature;humidity
44607;DHT22;30315;46.072;14.474;2022-10-16T00:01:20;15.10;78.90
44607;DHT22;30315;46.072;14.474;2022-10-16T00:03:47;15.10;79.00
44607;DHT22;30315;46.072;14.474;2022-10-16T00:06:15;15.00;79.00
44607;DHT22;30315;46.072;14.474;2022-10-16T00:08:42;15.10;79.00
44607;DHT22;30315;46.072;14.474;2022-10-16T00:11:10;15.10;79.10
44607;DHT22;30315;46.072;14.474;2022-10-16T00:13:38;15.00;79.00
44607;DHT22;30315;46.072;14.474;2022-10-16T00:16:06;15.00;79.20
44607;DHT22;30315;46.072;14.474;2022-10-16T00:18:33;15.00;79.50
44607;DHT22;30315;46.072;14.474;2022-10-16T00:21:07;15.00;79.40
44607;DHT22;30315;46.072;14.474;2022-10-16T00:23:35;14.90;79.20
44607;DHT22;30315;46.072;14.474;2022-10-16T00:26:03;14.90;79.40
44607;DHT22;30315;46.072;14.474;2022-10-16T00:28:30;14.90;79.40
44607;DHT22;30315;46.072;14.474;2022-10-16T00:30:57;14.90;79.20
44607;DHT22;30315;46.072;14.474;2022-10-16T00:33:24;14.80;79.20
44607;DHT22;30315;46.072;14.474;2022-10-16T00:35:51;14.80;79.20
44607;DHT22;30315;46.072;14.474;2022-10-16T00:38:18;14.80;79.10
44607;DHT22;30315;46.072;14.474;2022-10-16T00:40:44;14.80;79.00
44607;DHT22;30315;46.072;14.474;2022-10-16T00:43:12;14.80;79.10
44607;DHT22;30315;46.072;14.474;2022-10-16T00:45:39;14.80;79.20
44607;DHT22;30315;46.072;14.474;2022-10-16T00:48:08;14.70;79.20
44607;DHT22;30315;46.072;14.474;2022-10-16T00:50:37;14.70;79.20
44607;DHT22;30315;46.072;14.474;2022-10-16T00:53:05;14.70;79.30
44607;DHT22;30315;46.072;14.474;2022-10-16T00:55:32;14.70;79.40
44607;DHT22;30315;46.072;14.474;2022-10-16T00:57:58;14.70;79.30
44607;DHT22;30315;46.072;14.474;2022-10-16T01:00:26;14.70;79.40
44607;DHT22;30315;46.072;14.474;2022-10-16T01:05:21;14.70;78.90
44607;DHT22;30315;46.072;14.474;2022-10-16T01:10:41;14.20;79.00
44607;DHT22;30315;46.072;14.474;2022-10-16T01:16:15;14.60;79.60
44607;DHT22;30315;46.072;14.474;2022-10-16T01:18:43;14.60;80.20
44607;DHT22;30315;46.072;14.474;2022-10-16T01:21:32;14.60;80.50
44607;DHT22;30315;46.072;14.474;2022-10-16T01:26:36;14.50;80.30
44607;DHT22;30315;46.072;14.474;2022-10-16T01:31:59;14.50;80.70
44607;DHT22;30315;46.072;14.474;2022-10-16T01:34:49;14.50;80.70
44607;DHT22;30315;46.072;14.474;2022-10-16T01:37:19;14.50;80.80
44607;DHT22;30315;46.072;14.474;2022-10-16T01:39:47;14.50;81.80
44607;DHT22;30315;46.072;14.474;2022-10-16T01:44:43;14.50;81.50
44607;DHT22;30315;46.072;14.474;2022-10-16T01:47:11;14.60;81.80
44607;DHT22;30315;46.072;14.474;2022-10-16T01:49:38;14.60;81.80
44607;DHT22;30315;46.072;14.474;2022-10-16T01:52:08;14.60;81.90
44607;DHT22;30315;46.072;14.474;2022-10-16T01:54:36;14.60;82.10
44607;DHT22;30315;46.072;14.474;2022-10-16T01:57:04;14.20;82.00
44607;DHT22;30315;46.072;14.474;2022-10-16T01:59:43;14.60;82.30
44607;DHT22;30315;46.072;14.474;2022-10-16T02:02:10;14.60;82.00
44607;DHT22;30315;46.072;14.474;2022-10-16T02:04:39;14.70;81.70
44607;DHT22;30315;46.072;14.474;2022-10-16T02:07:06;14.60;81.50
44607;DHT22;30315;46.072;14.474;2022-10-16T02:09:33;14.60;81.60
44607;DHT22;30315;46.072;14.474;2022-10-16T02:12:03;14.60;81.70
44607;DHT22;30315;46.072;14.474;2022-10-16T02:17:22;14.60;81.70
44607;DHT22;30315;46.072;14.474;2022-10-16T02:19:50;14.60;81.90
44607;DHT22;30315;46.072;14.474;2022-10-16T02:22:27;14.60;82.20
44607;DHT22;30315;46.072;14.474;2022-10-16T02:27:58;14.60;82.30
44607;DHT22;30315;46.072;14.474;2022-10-16T02:30:29;14.30;82.00
44607;DHT22;30315;46.072;14.474;2022-10-16T02:32:57;14.60;82.50
44607;DHT22;30315;46.072;14.474;2022-10-16T02:35:25;14.60;82.60
44607;DHT22;30315;46.072;14.474;2022-10-16T02:37:53;14.60;82.90
44607;DHT22;30315;46.072;14.474;2022-10-16T02:40:20;14.60;83.10
44607;DHT22;30315;46.072;14.474;2022-10-16T02:42:51;14.60;83.40
44607;DHT22;30315;46.072;14.474;2022-10-16T02:45:19;14.60;84.00
44607;DHT22;30315;46.072;14.474;2022-10-16T02:47:46;14.60;83.80
44607;DHT22;30315;46.072;14.474;2022-10-16T02:50:13;14.60;84.00
44607;DHT22;30315;46.072;14.474;2022-10-16T02:52:40;14.50;84.00
44607;DHT22;30315;46.072;14.474;2022-10-16T02:55:07;14.60;84.50
44607;DHT22;30315;46.072;14.474;2022-10-16T02:57:34;14.60;84.70
44607;DHT22;30315;46.072;14.474;2022-10-16T03:00:02;14.50;84.50
44607;DHT22;30315;46.072;14.474;2022-10-16T03:02:29;14.60;84.80
44607;DHT22;30315;46.072;14.474;2022-10-16T03:04:55;14.60;84.70
44607;DHT22;30315;46.072;14.474;2022-10-16T03:07:22;14.60;84.70
44607;DHT22;30315;46.072;14.474;2022-10-16T03:09:50;14.50;84.60
44607;DHT22;30315;46.072;14.474;2022-10-16T03:12:16;14.50;84.60
44607;DHT22;30315;46.072;14.474;2022-10-16T03:14:43;14.50;84.70
44607;DHT22;30315;46.072;14.474;2022-10-16T03:17:10;14.50;84.80
44607;DHT22;30315;46.072;14.474;2022-10-16T03:19:37;14.40;85.10
44607;DHT22;30315;46.072;14.474;2022-10-16T03:22:04;14.50;85.20
44607;DHT22;30315;46.072;14.474;2022-10-16T03:24:31;14.50;85.20
44607;DHT22;30315;46.072;14.474;2022-10-16T03:26:57;14.50;85.40
44607;DHT22;30315;46.072;14.474;2022-10-16T03:29:24;14.40;85.50
44607;DHT22;30315;46.072;14.474;2022-10-16T03:31:52;14.50;85.80
44607;DHT22;30315;46.072;14.474;2022-10-16T03:34:19;14.50;85.90
44607;DHT22;30315;46.072;14.474;2022-10-16T03:36:45;14.40;85.90
44607;DHT22;30315;46.072;14.474;2022-10-16T03:39:12;14.40;86.10
44607;DHT22;30315;46.072;14.474;2022-10-16T03:41:39;14.40;86.10
44607;DHT22;30315;46.072;14.474;2022-10-16T03:44:06;14.40;85.90
44607;DHT22;30315;46.072;14.474;2022-10-16T03:46:32;14.40;86.10
44607;DHT22;30315;46.072;14.474;2022-10-16T03:48:59;14.30;86.30
44607;DHT22;30315;46.072;14.474;2022-10-16T03:51:26;14.40;86.60
44607;DHT22;30315;46.072;14.474;2022-10-16T03:53:53;14.40;86.30
44607;DHT22;30315;46.072;14.474;2022-10-16T03:56:19;14.40;86.30
44607;DHT22;30315;46.072;14.474;2022-10-16T03:58:46;14.40;86.40
44607;DHT22;30315;46.072;14.474;2022-10-16T04:01:13;14.30;86.30
44607;DHT22;30315;46.072;14.474;2022-10-16T04:03:40;14.30;86.50
44607;DHT22;30315;46.072;14.474;2022-10-16T04:06:07;14.30;86.50
44607;DHT22;30315;46.072;14.474;2022-10-16T04:08:34;14.40;86.60
44607;DHT22;30315;46.072;14.474;2022-10-16T04:11:03;14.40;86.70
44607;DHT22;30315;46.072;14.474;2022-10-16T04:13:30;14.40;86.80
44607;DHT22;30315;46.072;14.474;2022-10-16T04:15:57;14.40;86.80
44607;DHT22;30315;46.072;14.474;2022-10-16T04:18:23;14.40;86.90
44607;DHT22;30315;46.072;14.474;2022-10-16T04:20:53;14.40;86.90
44607;DHT22;30315;46.072;14.474;2022-10-16T04:23:20;14.30;86.80
44607;DHT22;30315;46.072;14.474;2022-10-16T04:25:47;14.30;86.80
44607;DHT22;30315;46.072;14.474;2022-10-16T04:28:14;14.40;86.70
44607;DHT22;30315;46.072;14.474;2022-10-16T04:30:41;14.40;86.70
44607;DHT22;30315;46.072;14.474;2022-10-16T04:33:08;14.30;86.30
44607;DHT22;30315;46.072;14.474;2022-10-16T04:35:35;14.30;86.30
44607;DHT22;30315;46.072;14.474;2022-10-16T04:38:02;14.30;86.60
44607;DHT22;30315;46.072;14.474;2022-10-16T04:40:29;14.30;86.60
44607;DHT22;30315;46.072;14.474;2022-10-16T04:42:59;14.30;86.40
44607;DHT22;30315;46.072;14.474;2022-10-16T04:45:26;14.30;86.20
44607;DHT22;30315;46.072;14.474;2022-10-16T04:47:52;14.30;86.10
44607;DHT22;30315;46.072;14.474;2022-10-16T04:50:19;14.20;85.90
44607;DHT22;30315;46.072;14.474;2022-10-16T04:53:00;14.20;86.00
44607;DHT22;30315;46.072;14.474;2022-10-16T04:55:27;14.20;86.00
44607;DHT22;30315;46.072;14.474;2022-10-16T04:57:54;14.30;86.10
44607;DHT22;30315;46.072;14.474;2022-10-16T05:00:21;14.20;86.10
44607;DHT22;30315;46.072;14.474;2022-10-16T05:02:52;14.20;86.10
44607;DHT22;30315;46.072;14.474;2022-10-16T05:05:19;14.20;86.10
44607;DHT22;30315;46.072;14.474;2022-10-16T05:07:46;14.20;86.00
44607;DHT22;30315;46.072;14.474;2022-10-16T05:10:13;14.20;86.00
44607;DHT22;30315;46.072;14.474;2022-10-16T05:12:40;14.10;85.70
44607;DHT22;30315;46.072;14.474;2022-10-16T05:15:07;14.20;86.10
44607;DHT22;30315;46.072;14.474;2022-10-16T05:17:34;14.20;86.10
44607;DHT22;30315;46.072;14.474;2022-10-16T05:20:00;14.10;85.80
44607;DHT22;30315;46.072;14.474;2022-10-16T05:22:27;14.10;85.90
44607;DHT22;30315;46.072;14.474;2022-10-16T05:24:54;14.20;86.00
44607;DHT22;30315;46.072;14.474;2022-10-16T05:27:21;14.20;86.10
44607;DHT22;30315;46.072;14.474;2022-10-16T05:29:48;14.20;86.00
44607;DHT22;30315;46.072;14.474;2022-10-16T05:32:15;14.10;86.00
44607;DHT22;30315;46.072;14.474;2022-10-16T05:34:43;14.10;86.10
44607;DHT22;30315;46.072;14.474;2022-10-16T05:37:10;14.10;86.20
44607;DHT22;30315;46.072;14.474;2022-10-16T05:39:38;14.10;86.40
44607;DHT22;30315;46.072;14.474;2022-10-16T05:42:05;14.10;86.70
44607;DHT22;30315;46.072;14.474;2022-10-16T05:44:32;14.10;86.80
44607;DHT22;30315;46.072;14.474;2022-10-16T05:46:59;14.10;86.90
44607;DHT22;30315;46.072;14.474;2022-10-16T05:49:26;14.10;87.00
44607;DHT22;30315;46.072;14.474;2022-10-16T05:51:53;14.10;87.10
44607;DHT22;30315;46.072;14.474;2022-10-16T05:54:20;14.10;87.10
44607;DHT22;30315;46.072;14.474;2022-10-16T05:56:46;14.10;87.00
44607;DHT22;30315;46.072;14.474;2022-10-16T05:59:13;14.10;86.90
44607;DHT22;30315;46.072;14.474;2022-10-16T06:01:40;14.10;86.70
44607;DHT22;30315;46.072;14.474;2022-10-16T06:04:07;14.10;86.40
44607;DHT22;30315;46.072;14.474;2022-10-16T06:06:34;14.10;86.30
44607;DHT22;30315;46.072;14.474;2022-10-16T06:09:03;14.10;86.50
44607;DHT22;30315;46.072;14.474;2022-10-16T06:11:31;14.10;86.50
44607;DHT22;30315;46.072;14.474;2022-10-16T06:13:59;14.10;86.50
44607;DHT22;30315;46.072;14.474;2022-10-16T06:16:28;14.10;86.60
44607;DHT22;30315;46.072;14.474;2022-10-16T06:18:55;14.10;86.50
44607;DHT22;30315;46.072;14.474;2022-10-16T06:21:23;14.10;86.40
44607;DHT22;30315;46.072;14.474;2022-10-16T06:23:53;14.10;86.50
44607;DHT22;30315;46.072;14.474;2022-10-16T06:26:22;14.10;86.70
44607;DHT22;30315;46.072;14.474;2022-10-16T06:28:49;14.10;87.10
44607;DHT22;30315;46.072;14.474;2022-10-16T06:31:16;14.10;87.20
44607;DHT22;30315;46.072;14.474;2022-10-16T06:33:43;14.10;87.40
44607;DHT22;30315;46.072;14.474;2022-10-16T06:36:13;14.10;87.40
44607;DHT22;30315;46.072;14.474;2022-10-16T06:38:41;14.00;87.40
44607;DHT22;30315;46.072;14.474;2022-10-16T06:41:09;14.10;87.90
44607;DHT22;30315;46.072;14.474;2022-10-16T06:43:36;14.10;87.70
44607;DHT22;30315;46.072;14.474;2022-10-16T06:46:04;14.10;87.90
44607;DHT22;30315;46.072;14.474;2022-10-16T06:48:31;14.10;88.10
44607;DHT22;30315;46.072;14.474;2022-10-16T06:50:59;14.10;88.30
44607;DHT22;30315;46.072;14.474;2022-10-16T06:53:27;14.10;88.20
44607;DHT22;30315;46.072;14.474;2022-10-16T06:55:54;14.20;88.20
44607;DHT22;30315;46.072;14.474;2022-10-16T06:58:20;14.20;88.10
44607;DHT22;30315;46.072;14.474;2022-10-16T07:00:47;14.20;88.20
44607;DHT22;30315;46.072;14.474;2022-10-16T07:03:14;14.20;88.20
44607;DHT22;30315;46.072;14.474;2022-10-16T07:05:41;14.30;88.40
44607;DHT22;30315;46.072;14.474;2022-10-16T07:08:09;14.20;88.10
44607;DHT22;30315;46.072;14.474;2022-10-16T07:10:35;14.20;88.20
44607;DHT22;30315;46.072;14.474;2022-10-16T07:13:02;14.30;88.70
44607;DHT22;30315;46.072;14.474;2022-10-16T07:15:29;14.30;88.90
44607;DHT22;30315;46.072;14.474;2022-10-16T07:17:56;14.30;88.90
44607;DHT22;30315;46.072;14.474;2022-10-16T07:20:23;14.40;89.20
44607;DHT22;30315;46.072;14.474;2022-10-16T07:22:50;14.40;89.10
44607;DHT22;30315;46.072;14.474;2022-10-16T07:25:17;14.40;89.00
44607;DHT22;30315;46.072;14.474;2022-10-16T07:27:44;14.40;89.00
44607;DHT22;30315;46.072;14.474;2022-10-16T07:30:11;14.40;88.80
44607;DHT22;30315;46.072;14.474;2022-10-16T07:32:38;14.50;88.90
44607;DHT22;30315;46.072;14.474;2022-10-16T07:35:05;14.50;89.00
44607;DHT22;30315;46.072;14.474;2022-10-16T07:37:32;14.50;89.10
44607;DHT22;30315;46.072;14.474;2022-10-16T07:39:58;14.50;89.00
44607;DHT22;30315;46.072;14.474;2022-10-16T07:42:26;14.50;89.20
44607;DHT22;30315;46.072;14.474;2022-10-16T07:44:53;14.50;89.20
44607;DHT22;30315;46.072;14.474;2022-10-16T07:47:20;14.60;89.30
44607;DHT22;30315;46.072;14.474;2022-10-16T07:49:47;14.60;89.30
44607;DHT22;30315;46.072;14.474;2022-10-16T07:52:14;14.60;89.50
44607;DHT22;30315;46.072;14.474;2022-10-16T07:54:40;14.60;89.40
44607;DHT22;30315;46.072;14.474;2022-10-16T07:57:07;14.60;89.40
44607;DHT22;30315;46.072;14.474;2022-10-16T07:59:34;14.70;89.70
44607;DHT22;30315;46.072;14.474;2022-10-16T08:02:01;14.70;89.40
44607;DHT22;30315;46.072;14.474;2022-10-16T08:04:28;14.70;89.10
44607;DHT22;30315;46.072;14.474;2022-10-16T08:06:54;14.40;88.80
44607;DHT22;30315;46.072;14.474;2022-10-16T08:09:21;14.80;88.90
44607;DHT22;30315;46.072;14.474;2022-10-16T08:11:48;14.70;88.90
44607;DHT22;30315;46.072;14.474;2022-10-16T08:14:14;14.80;89.40
44607;DHT22;30315;46.072;14.474;2022-10-16T08:16:41;14.80;89.40
44607;DHT22;30315;46.072;14.474;2022-10-16T08:19:08;14.80;89.10
44607;DHT22;30315;46.072;14.474;2022-10-16T08:21:35;14.80;89.00
44607;DHT22;30315;46.072;14.474;2022-10-16T08:24:02;14.90;89.20
44607;DHT22;30315;46.072;14.474;2022-10-16T08:26:29;14.80;89.10
44607;DHT22;30315;46.072;14.474;2022-10-16T08:28:56;14.90;89.00
44607;DHT22;30315;46.072;14.474;2022-10-16T08:31:23;15.00;89.10
44607;DHT22;30315;46.072;14.474;2022-10-16T08:33:50;15.00;89.00
44607;DHT22;30315;46.072;14.474;2022-10-16T08:36:17;15.00;88.90
44607;DHT22;30315;46.072;14.474;2022-10-16T08:38:47;15.00;88.70
44607;DHT22;30315;46.072;14.474;2022-10-16T08:49:16;15.30;90.90
44607;DHT22;30315;46.072;14.474;2022-10-16T08:51:43;15.40;90.10
44607;DHT22;30315;46.072;14.474;2022-10-16T08:54:28;15.40;89.70
44607;DHT22;30315;46.072;14.474;2022-10-16T08:56:56;15.40;89.40
44607;DHT22;30315;46.072;14.474;2022-10-16T08:59:23;15.50;89.30
44607;DHT22;30315;46.072;14.474;2022-10-16T09:01:50;15.60;88.80
44607;DHT22;30315;46.072;14.474;2022-10-16T09:14:35;15.70;88.10
44607;DHT22;30315;46.072;14.474;2022-10-16T09:19:46;15.80;87.60
44607;DHT22;30315;46.072;14.474;2022-10-16T09:22:17;15.80;87.50
44607;DHT22;30315;46.072;14.474;2022-10-16T09:24:44;15.90;87.90
44607;DHT22;30315;46.072;14.474;2022-10-16T09:27:12;15.90;87.50
44607;DHT22;30315;46.072;14.474;2022-10-16T09:29:38;16.00;87.30
44607;DHT22;30315;46.072;14.474;2022-10-16T09:32:16;16.10;87.30
44607;DHT22;30315;46.072;14.474;2022-10-16T09:34:48;16.20;87.40
44607;DHT22;30315;46.072;14.474;2022-10-16T09:37:20;16.20;87.30
44607;DHT22;30315;46.072;14.474;2022-10-16T09:39:52;16.30;87.30
44607;DHT22;30315;46.072;14.474;2022-10-16T09:42:30;16.40;87.20
44607;DHT22;30315;46.072;14.474;2022-10-16T09:44:58;16.50;87.20
44607;DHT22;30315;46.072;14.474;2022-10-16T09:47:25;16.50;86.80
44607;DHT22;30315;46.072;14.474;2022-10-16T09:49:58;16.70;87.10
44607;DHT22;30315;46.072;14.474;2022-10-16T09:52:28;16.70;86.00
44607;DHT22;30315;46.072;14.474;2022-10-16T09:54:55;16.80;85.60
44607;DHT22;30315;46.072;14.474;2022-10-16T09:57:23;16.80;85.00
44607;DHT22;30315;46.072;14.474;2022-10-16T09:59:51;16.80;84.30
44607;DHT22;30315;46.072;14.474;2022-10-16T10:02:20;16.80;83.80
44607;DHT22;30315;46.072;14.474;2022-10-16T10:04:50;16.80;83.70
44607;DHT22;30315;46.072;14.474;2022-10-16T10:07:20;16.80;83.80
44607;DHT22;30315;46.072;14.474;2022-10-16T10:09:50;16.80;83.90
44607;DHT22;30315;46.072;14.474;2022-10-16T10:12:32;16.90;83.80
44607;DHT22;30315;46.072;14.474;2022-10-16T10:15:10;16.90;83.40
44607;DHT22;30315;46.072;14.474;2022-10-16T10:17:51;17.00;83.70
44607;DHT22;30315;46.072;14.474;2022-10-16T10:20:26;17.00;83.70
44607;DHT22;30315;46.072;14.474;2022-10-16T10:22:54;17.00;82.70
44607;DHT22;30315;46.072;14.474;2022-10-16T10:25:37;17.00;82.70
44607;DHT22;30315;46.072;14.474;2022-10-16T10:28:21;17.10;82.70
44607;DHT22;30315;46.072;14.474;2022-10-16T10:30:56;17.20;82.70
44607;DHT22;30315;46.072;14.474;2022-10-16T10:36:02;17.30;82.50
44607;DHT22;30315;46.072;14.474;2022-10-16T10:38:33;17.40;82.40
44607;DHT22;30315;46.072;14.474;2022-10-16T10:41:09;17.50;82.20
44607;DHT22;30315;46.072;14.474;2022-10-16T10:57:12;18.20;81.00
44607;DHT22;30315;46.072;14.474;2022-10-16T10:59:43;18.30;81.00
44607;DHT22;30315;46.072;14.474;2022-10-16T11:02:21;18.40;80.80
44607;DHT22;30315;46.072;14.474;2022-10-16T11:04:55;18.50;80.00
44607;DHT22;30315;46.072;14.474;2022-10-16T11:07:36;18.60;80.60
44607;DHT22;30315;46.072;14.474;2022-10-16T11:10:09;18.70;80.40
44607;DHT22;30315;46.072;14.474;2022-10-16T11:12:40;18.80;80.10
44607;DHT22;30315;46.072;14.474;2022-10-16T11:17:39;19.00;78.20
44607;DHT22;30315;46.072;14.474;2022-10-16T11:22:42;19.20;77.50
44607;DHT22;30315;46.072;14.474;2022-10-16T11:25:13;19.30;77.10
44607;DHT22;30315;46.072;14.474;2022-10-16T11:30:16;19.50;75.90
44607;DHT22;30315;46.072;14.474;2022-10-16T11:32:55;19.60;76.00
44607;DHT22;30315;46.072;14.474;2022-10-16T11:35:25;19.70;75.90
44607;DHT22;30315;46.072;14.474;2022-10-16T11:37:55;19.80;76.20
44607;DHT22;30315;46.072;14.474;2022-10-16T11:40:33;19.90;75.20
44607;DHT22;30315;46.072;14.474;2022-10-16T11:43:07;20.00;74.90
44607;DHT22;30315;46.072;14.474;2022-10-16T11:45:39;20.10;75.10
44607;DHT22;30315;46.072;14.474;2022-10-16T11:50:52;20.40;77.40
44607;DHT22;30315;46.072;14.474;2022-10-16T11:55:47;20.70;76.30
44607;DHT22;30315;46.072;14.474;2022-10-16T11:58:20;20.80;76.30
44607;DHT22;30315;46.072;14.474;2022-10-16T12:00:58;21.00;76.60
44607;DHT22;30315;46.072;14.474;2022-10-16T12:03:31;21.10;76.10
44607;DHT22;30315;46.072;14.474;2022-10-16T12:08:28;21.40;73.70
44607;DHT22;30315;46.072;14.474;2022-10-16T12:11:06;21.50;73.60
44607;DHT22;30315;46.072;14.474;2022-10-16T12:13:37;21.60;74.30
44607;DHT22;30315;46.072;14.474;2022-10-16T12:18:38;21.80;72.60
44607;DHT22;30315;46.072;14.474;2022-10-16T12:21:05;21.90;71.80
44607;DHT22;30315;46.072;14.474;2022-10-16T12:23:37;22.00;70.70
44607;DHT22;30315;46.072;14.474;2022-10-16T12:26:04;22.00;70.40
44607;DHT22;30315;46.072;14.474;2022-10-16T12:28:32;22.10;71.20
44607;DHT22;30315;46.072;14.474;2022-10-16T12:31:00;22.20;71.10
44607;DHT22;30315;46.072;14.474;2022-10-16T12:33:29;22.30;70.30
44607;DHT22;30315;46.072;14.474;2022-10-16T12:35:57;22.40;70.10
44607;DHT22;30315;46.072;14.474;2022-10-16T12:38:28;22.50;69.70
44607;DHT22;30315;46.072;14.474;2022-10-16T12:40:58;22.60;69.70
44607;DHT22;30315;46.072;14.474;2022-10-16T12:43:28;22.80;69.60
44607;DHT22;30315;46.072;14.474;2022-10-16T12:45:59;22.90;69.00
44607;DHT22;30315;46.072;14.474;2022-10-16T12:48:27;22.90;68.20
44607;DHT22;30315;46.072;14.474;2022-10-16T12:54:04;23.10;68.00
44607;DHT22;30315;46.072;14.474;2022-10-16T12:56:52;23.30;67.80
44607;DHT22;30315;46.072;14.474;2022-10-16T12:59:25;23.40;67.50
44607;DHT22;30315;46.072;14.474;2022-10-16T13:10:02;23.90;67.80
44607;DHT22;30315;46.072;14.474;2022-10-16T13:17:37;24.20;67.00
44607;DHT22;30315;46.072;14.474;2022-10-16T13:20:14;24.30;65.80
44607;DHT22;30315;46.072;14.474;2022-10-16T13:25:36;24.50;65.60
44607;DHT22;30315;46.072;14.474;2022-10-16T13:28:07;24.60;65.40
44607;DHT22;30315;46.072;14.474;2022-10-16T13:30:50;24.60;65.40
44607;DHT22;30315;46.072;14.474;2022-10-16T13:33:24;24.70;64.70
44607;DHT22;30315;46.072;14.474;2022-10-16T13:35:54;24.80;64.90
44607;DHT22;30315;46.072;14.474;2022-10-16T13:38:22;24.90;64.20
44607;DHT22;30315;46.072;14.474;2022-10-16T13:40:50;24.90;64.20
44607;DHT22;30315;46.072;14.474;2022-10-16T13:43:22;25.00;63.90
44607;DHT22;30315;46.072;14.474;2022-10-16T13:45:56;25.10;64.00
44607;DHT22;30315;46.072;14.474;2022-10-16T13:48:24;25.20;64.00
44607;DHT22;30315;46.072;14.474;2022-10-16T13:50:58;25.20;63.70
44607;DHT22;30315;46.072;14.474;2022-10-16T13:53:24;25.30;62.90
44607;DHT22;30315;46.072;14.474;2022-10-16T13:55:51;25.40;63.60
44607;DHT22;30315;46.072;14.474;2022-10-16T13:58:18;25.40;63.50
44607;DHT22;30315;46.072;14.474;2022-10-16T14:00:59;25.50;62.90
44607;DHT22;30315;46.072;14.474;2022-10-16T14:03:26;25.50;62.40
44607;DHT22;30315;46.072;14.474;2022-10-16T14:05:55;25.60;62.60
44607;DHT22;30315;46.072;14.474;2022-10-16T14:08:23;25.60;62.80
44607;DHT22;30315;46.072;14.474;2022-10-16T14:10:51;25.70;62.70
44607;DHT22;30315;46.072;14.474;2022-10-16T14:13:21;25.70;63.00
44607;DHT22;30315;46.072;14.474;2022-10-16T14:15:50;25.80;62.40
44607;DHT22;30315;46.072;14.474;2022-10-16T14:18:21;25.80;62.20
44607;DHT22;30315;46.072;14.474;2022-10-16T14:20:49;25.80;61.60
44607;DHT22;30315;46.072;14.474;2022-10-16T14:23:23;25.90;61.50
44607;DHT22;30315;46.072;14.474;2022-10-16T14:26:04;25.90;61.40
44607;DHT22;30315;46.072;14.474;2022-10-16T14:28:31;25.90;61.10
44607;DHT22;30315;46.072;14.474;2022-10-16T14:30:59;26.00;61.50
44607;DHT22;30315;46.072;14.474;2022-10-16T14:35:59;25.90;61.40
44607;DHT22;30315;46.072;14.474;2022-10-16T14:38:26;25.90;61.10
44607;DHT22;30315;46.072;14.474;2022-10-16T14:40:53;25.90;61.20
44607;DHT22;30315;46.072;14.474;2022-10-16T14:43:22;25.90;60.80
44607;DHT22;30315;46.072;14.474;2022-10-16T14:45:50;25.90;60.40
44607;DHT22;30315;46.072;14.474;2022-10-16T14:48:18;25.90;60.60
44607;DHT22;30315;46.072;14.474;2022-10-16T14:50:46;25.80;60.20
44607;DHT22;30315;46.072;14.474;2022-10-16T14:53:13;26.00;60.10
44607;DHT22;30315;46.072;14.474;2022-10-16T14:55:40;25.80;60.00
44607;DHT22;30315;46.072;14.474;2022-10-16T14:58:10;25.70;59.80
44607;DHT22;30315;46.072;14.474;2022-10-16T15:00:40;25.60;59.50
44607;DHT22;30315;46.072;14.474;2022-10-16T15:03:07;25.60;59.30
44607;DHT22;30315;46.072;14.474;2022-10-16T15:05:34;25.40;59.00
44607;DHT22;30315;46.072;14.474;2022-10-16T15:08:01;25.50;59.20
44607;DHT22;30315;46.072;14.474;2022-10-16T15:10:28;25.40;59.00
44607;DHT22;30315;46.072;14.474;2022-10-16T15:12:55;25.40;59.30
44607;DHT22;30315;46.072;14.474;2022-10-16T15:17:53;25.30;59.40
44607;DHT22;30315;46.072;14.474;2022-10-16T15:20:23;25.10;59.20
44607;DHT22;30315;46.072;14.474;2022-10-16T15:22:50;25.10;59.60
44607;DHT22;30315;46.072;14.474;2022-10-16T15:25:29;25.00;59.80
44607;DHT22;30315;46.072;14.474;2022-10-16T15:27:56;24.90;60.00
44607;DHT22;30315;46.072;14.474;2022-10-16T15:30:23;24.80;60.20
44607;DHT22;30315;46.072;14.474;2022-10-16T15:32:50;24.70;60.40
44607;DHT22;30315;46.072;14.474;2022-10-16T15:35:16;24.50;60.60
44607;DHT22;30315;46.072;14.474;2022-10-16T15:37:43;24.40;61.00
44607;DHT22;30315;46.072;14.474;2022-10-16T15:40:10;24.30;61.50
44607;DHT22;30315;46.072;14.474;2022-10-16T15:42:37;24.10;61.90
44607;DHT22;30315;46.072;14.474;2022-10-16T15:45:04;24.00;62.40
44607;DHT22;30315;46.072;14.474;2022-10-16T15:47:32;23.90;62.80
44607;DHT22;30315;46.072;14.474;2022-10-16T15:49:59;23.80;63.30
44607;DHT22;30315;46.072;14.474;2022-10-16T15:52:26;23.60;63.70
44607;DHT22;30315;46.072;14.474;2022-10-16T15:54:55;23.50;64.20
44607;DHT22;30315;46.072;14.474;2022-10-16T15:57:22;23.40;64.70
44607;DHT22;30315;46.072;14.474;2022-10-16T15:59:50;23.30;65.20
44607;DHT22;30315;46.072;14.474;2022-10-16T16:02:17;23.20;65.40
44607;DHT22;30315;46.072;14.474;2022-10-16T16:04:43;23.00;65.70
44607;DHT22;30315;46.072;14.474;2022-10-16T16:07:10;22.90;66.20
44607;DHT22;30315;46.072;14.474;2022-10-16T16:09:37;22.80;66.30
44607;DHT22;30315;46.072;14.474;2022-10-16T16:12:04;22.70;66.60
44607;DHT22;30315;46.072;14.474;2022-10-16T16:14:31;22.60;66.80
44607;DHT22;30315;46.072;14.474;2022-10-16T16:16:58;22.50;67.20
44607;DHT22;30315;46.072;14.474;2022-10-16T16:19:25;22.50;67.50
44607;DHT22;30315;46.072;14.474;2022-10-16T16:21:52;22.30;67.80
44607;DHT22;30315;46.072;14.474;2022-10-16T16:24:19;22.30;68.00
44607;DHT22;30315;46.072;14.474;2022-10-16T16:26:46;22.10;68.50
44607;DHT22;30315;46.072;14.474;2022-10-16T16:29:13;22.10;68.80
44607;DHT22;30315;46.072;14.474;2022-10-16T16:31:41;22.00;69.10
44607;DHT22;30315;46.072;14.474;2022-10-16T16:34:08;22.00;69.70
44607;DHT22;30315;46.072;14.474;2022-10-16T16:36:35;21.90;69.50
44607;DHT22;30315;46.072;14.474;2022-10-16T16:39:02;21.80;69.70
44607;DHT22;30315;46.072;14.474;2022-10-16T16:41:29;21.80;69.80
44607;DHT22;30315;46.072;14.474;2022-10-16T16:44:06;21.70;70.30
44607;DHT22;30315;46.072;14.474;2022-10-16T16:46:34;21.70;70.50
44607;DHT22;30315;46.072;14.474;2022-10-16T16:49:01;21.60;70.60
44607;DHT22;30315;46.072;14.474;2022-10-16T16:51:28;21.50;70.30
44607;DHT22;30315;46.072;14.474;2022-10-16T16:53:55;21.50;70.70
44607;DHT22;30315;46.072;14.474;2022-10-16T16:56:22;21.50;71.00
44607;DHT22;30315;46.072;14.474;2022-10-16T16:58:50;21.40;71.10
44607;DHT22;30315;46.072;14.474;2022-10-16T17:01:17;21.40;71.40
44607;DHT22;30315;46.072;14.474;2022-10-16T17:03:47;21.30;71.50
44607;DHT22;30315;46.072;14.474;2022-10-16T17:06:17;21.30;71.70